sensor_id;sensor_type;location;lat;lon;timestamp;P1;durP1;ratioP1;P2;durP2;ratioP2
9467;SDS011;4772;52.382;9.752;2023-03-01T00:00:40;7.70;;;6.00;;
9467;SDS011;4772;52.382;9.752;2023-03-01T00:03:06;7.63;;;5.90;;
9467;SDS011;4772;52.382;9.752;2023-03-01T00:05:32;10.07;;;6.63;;
9467;SDS011;4772;52.382;9.752;2023-03-01T00:07:58;9.80;;;6.50;;
9467;SDS011;4772;52.382;9.752;2023-03-01T00:10:24;9.53;;;6.67;;
9467;SDS011;4772;52.382;9.752;2023-03-01T00:12:51;9.70;;;6.73;;
9467;SDS011;4772;52.382;9.752;2023-03-01T00:15:17;9.13;;;6.90;;
9467;SDS011;4772;52.382;9.752;2023-03-01T00:17:43;12.17;;;7.13;;
9467;SDS011;4772;52.382;9.752;2023-03-01T00:20:09;9.60;;;6.80;;
9467;SDS011;4772;52.382;9.752;2023-03-01T00:22:36;10.23;;;6.97;;
9467;SDS011;4772;52.382;9.752;2023-03-01T00:25:03;11.23;;;7.67;;
9467;SDS011;4772;52.382;9.752;2023-03-01T00:27:29;13.77;;;7.13;;
9467;SDS011;4772;52.382;9.752;2023-03-01T00:29:55;12.53;;;7.97;;
9467;SDS011;4772;52.382;9.752;2023-03-01T00:32:21;10.53;;;7.73;;
9467;SDS011;4772;52.382;9.752;2023-03-01T00:34:47;11.23;;;8.03;;
9467;SDS011;4772;52.382;9.752;2023-03-01T00:37:20;13.63;;;7.03;;
9467;SDS011;4772;52.382;9.752;2023-03-01T00:39:46;11.33;;;7.93;;
9467;SDS011;4772;52.382;9.752;2023-03-01T00:42:12;11.70;;;7.53;;
9467;SDS011;4772;52.382;9.752;2023-03-01T00:44:38;11.87;;;7.57;;
9467;SDS011;4772;52.382;9.752;2023-03-01T00:47:04;9.80;;;7.20;;
9467;SDS011;4772;52.382;9.752;2023-03-01T00:49:30;10.27;;;7.53;;
9467;SDS011;4772;52.382;9.752;2023-03-01T00:51:56;13.17;;;8.07;;
9467;SDS011;4772;52.382;9.752;2023-03-01T00:54:22;14.90;;;8.10;;
9467;SDS011;4772;52.382;9.752;2023-03-01T00:56:48;11.60;;;7.60;;
9467;SDS011;4772;52.382;9.752;2023-03-01T00:59:14;10.67;;;8.00;;
9467;SDS011;4772;52.382;9.752;2023-03-01T01:01:40;10.03;;;7.77;;
9467;SDS011;4772;52.382;9.752;2023-03-01T01:04:08;13.37;;;8.37;;
9467;SDS011;4772;52.382;9.752;2023-03-01T01:06:35;10.07;;;7.63;;
9467;SDS011;4772;52.382;9.752;2023-03-01T01:09:02;10.33;;;7.03;;
9467;SDS011;4772;52.382;9.752;2023-03-01T01:11:29;10.37;;;8.03;;
9467;SDS011;4772;52.382;9.752;2023-03-01T01:13:55;12.87;;;8.23;;
9467;SDS011;4772;52.382;9.752;2023-03-01T01:16:22;12.20;;;8.43;;
9467;SDS011;4772;52.382;9.752;2023-03-01T01:18:48;12.83;;;8.00;;
9467;SDS011;4772;52.382;9.752;2023-03-01T01:21:15;11.83;;;7.87;;
9467;SDS011;4772;52.382;9.752;2023-03-01T01:23:42;12.93;;;8.40;;
9467;SDS011;4772;52.382;9.752;2023-03-01T01:26:16;11.73;;;7.10;;
9467;SDS011;4772;52.382;9.752;2023-03-01T01:28:42;11.37;;;7.50;;
9467;SDS011;4772;52.382;9.752;2023-03-01T01:31:08;9.23;;;7.10;;
9467;SDS011;4772;52.382;9.752;2023-03-01T01:33:35;10.33;;;7.40;;
9467;SDS011;4772;52.382;9.752;2023-03-01T01:36:02;12.03;;;8.20;;
9467;SDS011;4772;52.382;9.752;2023-03-01T01:38:28;11.50;;;8.23;;
9467;SDS011;4772;52.382;9.752;2023-03-01T01:40:54;9.67;;;7.17;;
9467;SDS011;4772;52.382;9.752;2023-03-01T01:45:46;12.67;;;7.50;;
9467;SDS011;4772;52.382;9.752;2023-03-01T01:48:13;14.27;;;7.70;;
9467;SDS011;4772;52.382;9.752;2023-03-01T01:50:40;12.30;;;8.37;;
9467;SDS011;4772;52.382;9.752;2023-03-01T01:53:10;10.03;;;7.80;;
9467;SDS011;4772;52.382;9.752;2023-03-01T01:55:39;11.53;;;7.63;;
9467;SDS011;4772;52.382;9.752;2023-03-01T01:58:07;11.47;;;8.27;;
9467;SDS011;4772;52.382;9.752;2023-03-01T02:00:35;12.47;;;7.43;;
9467;SDS011;4772;52.382;9.752;2023-03-01T02:03:04;10.70;;;8.17;;
9467;SDS011;4772;52.382;9.752;2023-03-01T02:08:06;10.73;;;7.33;;
9467;SDS011;4772;52.382;9.752;2023-03-01T02:10:32;11.37;;;7.33;;
9467;SDS011;4772;52.382;9.752;2023-03-01T02:12:59;12.17;;;7.17;;
9467;SDS011;4772;52.382;9.752;2023-03-01T02:15:25;11.23;;;8.23;;
9467;SDS011;4772;52.382;9.752;2023-03-01T02:17:52;11.40;;;7.53;;
9467;SDS011;4772;52.382;9.752;2023-03-01T02:22:53;8.50;;;6.80;;
9467;SDS011;4772;52.382;9.752;2023-03-01T02:25:22;9.73;;;7.63;;
9467;SDS011;4772;52.382;9.752;2023-03-01T02:27:54;10.67;;;6.90;;
9467;SDS011;4772;52.382;9.752;2023-03-01T02:30:21;9.03;;;7.03;;
9467;SDS011;4772;52.382;9.752;2023-03-01T02:32:48;10.20;;;7.17;;
9467;SDS011;4772;52.382;9.752;2023-03-01T02:35:15;12.40;;;7.13;;
9467;SDS011;4772;52.382;9.752;2023-03-01T02:37:41;10.73;;;7.50;;
9467;SDS011;4772;52.382;9.752;2023-03-01T02:40:09;11.20;;;7.77;;
9467;SDS011;4772;52.382;9.752;2023-03-01T02:42:38;11.20;;;7.57;;
9467;SDS011;4772;52.382;9.752;2023-03-01T02:45:06;10.67;;;7.60;;
9467;SDS011;4772;52.382;9.752;2023-03-01T02:47:32;9.23;;;7.43;;
9467;SDS011;4772;52.382;9.752;2023-03-01T02:49:58;11.03;;;7.57;;
9467;SDS011;4772;52.382;9.752;2023-03-01T02:52:40;9.83;;;6.90;;
9467;SDS011;4772;52.382;9.752;2023-03-01T02:55:10;10.17;;;7.43;;
9467;SDS011;4772;52.382;9.752;2023-03-01T02:57:37;11.23;;;7.17;;
9467;SDS011;4772;52.382;9.752;2023-03-01T03:00:06;9.87;;;7.70;;
9467;SDS011;4772;52.382;9.752;2023-03-01T03:02:33;11.07;;;7.70;;
9467;SDS011;4772;52.382;9.752;2023-03-01T03:05:09;9.40;;;7.27;;
9467;SDS011;4772;52.382;9.752;2023-03-01T03:07:36;10.83;;;7.10;;
9467;SDS011;4772;52.382;9.752;2023-03-01T03:10:04;9.80;;;7.40;;
9467;SDS011;4772;52.382;9.752;2023-03-01T03:12:31;9.17;;;7.30;;
9467;SDS011;4772;52.382;9.752;2023-03-01T03:14:57;8.77;;;7.43;;
9467;SDS011;4772;52.382;9.752;2023-03-01T03:17:23;10.57;;;7.40;;
9467;SDS011;4772;52.382;9.752;2023-03-01T03:19:49;10.73;;;7.80;;
9467;SDS011;4772;52.382;9.752;2023-03-01T03:22:15;14.17;;;8.23;;
9467;SDS011;4772;52.382;9.752;2023-03-01T03:24:41;11.13;;;7.70;;
9467;SDS011;4772;52.382;9.752;2023-03-01T03:27:07;12.50;;;7.90;;
9467;SDS011;4772;52.382;9.752;2023-03-01T03:29:33;10.00;;;7.03;;
9467;SDS011;4772;52.382;9.752;2023-03-01T03:31:59;9.67;;;7.70;;
9467;SDS011;4772;52.382;9.752;2023-03-01T03:34:25;13.03;;;7.60;;
9467;SDS011;4772;52.382;9.752;2023-03-01T03:36:54;10.40;;;7.07;;
9467;SDS011;4772;52.382;9.752;2023-03-01T03:39:27;9.47;;;7.43;;
9467;SDS011;4772;52.382;9.752;2023-03-01T03:41:53;11.70;;;7.67;;
9467;SDS011;4772;52.382;9.752;2023-03-01T03:44:20;9.37;;;7.23;;
9467;SDS011;4772;52.382;9.752;2023-03-01T03:46:46;11.10;;;8.13;;
9467;SDS011;4772;52.382;9.752;2023-03-01T03:49:12;11.70;;;8.97;;
9467;SDS011;4772;52.382;9.752;2023-03-01T03:51:38;10.97;;;8.27;;
9467;SDS011;4772;52.382;9.752;2023-03-01T03:54:04;11.40;;;8.37;;
9467;SDS011;4772;52.382;9.752;2023-03-01T03:56:30;10.60;;;8.37;;
9467;SDS011;4772;52.382;9.752;2023-03-01T03:58:56;11.33;;;7.70;;
9467;SDS011;4772;52.382;9.752;2023-03-01T04:01:22;12.07;;;8.23;;
9467;SDS011;4772;52.382;9.752;2023-03-01T04:03:48;10.53;;;7.70;;
9467;SDS011;4772;52.382;9.752;2023-03-01T04:06:19;11.83;;;8.27;;
9467;SDS011;4772;52.382;9.752;2023-03-01T04:08:45;10.27;;;8.07;;
9467;SDS011;4772;52.382;9.752;2023-03-01T04:11:11;16.63;;;8.80;;
9467;SDS011;4772;52.382;9.752;2023-03-01T04:13:54;12.63;;;7.87;;
9467;SDS011;4772;52.382;9.752;2023-03-01T04:16:20;10.47;;;7.40;;
9467;SDS011;4772;52.382;9.752;2023-03-01T04:18:46;10.90;;;7.70;;
9467;SDS011;4772;52.382;9.752;2023-03-01T04:21:12;12.33;;;8.23;;
9467;SDS011;4772;52.382;9.752;2023-03-01T04:23:38;10.43;;;8.20;;
9467;SDS011;4772;52.382;9.752;2023-03-01T04:26:05;11.27;;;8.33;;
9467;SDS011;4772;52.382;9.752;2023-03-01T04:28:37;14.27;;;7.60;;
9467;SDS011;4772;52.382;9.752;2023-03-01T04:31:06;8.33;;;7.00;;
9467;SDS011;4772;52.382;9.752;2023-03-01T04:33:42;11.10;;;7.87;;
9467;SDS011;4772;52.382;9.752;2023-03-01T04:36:11;11.90;;;8.23;;
9467;SDS011;4772;52.382;9.752;2023-03-01T04:38:37;12.03;;;8.40;;
9467;SDS011;4772;52.382;9.752;2023-03-01T04:41:04;12.07;;;8.13;;
9467;SDS011;4772;52.382;9.752;2023-03-01T04:43:31;11.53;;;7.90;;
9467;SDS011;4772;52.382;9.752;2023-03-01T04:46:02;12.03;;;8.40;;
9467;SDS011;4772;52.382;9.752;2023-03-01T04:48:29;10.87;;;8.37;;
9467;SDS011;4772;52.382;9.752;2023-03-01T04:50:55;9.83;;;7.97;;
9467;SDS011;4772;52.382;9.752;2023-03-01T04:53:21;11.87;;;8.20;;
9467;SDS011;4772;52.382;9.752;2023-03-01T04:55:47;14.53;;;9.00;;
9467;SDS011;4772;52.382;9.752;2023-03-01T04:58:13;13.57;;;8.80;;
9467;SDS011;4772;52.382;9.752;2023-03-01T05:00:39;15.57;;;9.40;;
9467;SDS011;4772;52.382;9.752;2023-03-01T05:03:05;12.10;;;8.47;;
9467;SDS011;4772;52.382;9.752;2023-03-01T05:05:35;14.23;;;8.67;;
9467;SDS011;4772;52.382;9.752;2023-03-01T05:08:02;14.63;;;9.33;;
9467;SDS011;4772;52.382;9.752;2023-03-01T05:10:29;14.97;;;9.17;;
9467;SDS011;4772;52.382;9.752;2023-03-01T05:12:56;13.23;;;9.00;;
9467;SDS011;4772;52.382;9.752;2023-03-01T05:15:22;14.17;;;9.00;;
9467;SDS011;4772;52.382;9.752;2023-03-01T05:17:53;14.07;;;9.80;;
9467;SDS011;4772;52.382;9.752;2023-03-01T05:20:19;11.03;;;8.30;;
9467;SDS011;4772;52.382;9.752;2023-03-01T05:22:49;12.10;;;9.43;;
9467;SDS011;4772;52.382;9.752;2023-03-01T05:25:16;12.43;;;9.00;;
9467;SDS011;4772;52.382;9.752;2023-03-01T05:27:42;11.77;;;8.03;;
9467;SDS011;4772;52.382;9.752;2023-03-01T05:30:08;13.07;;;9.23;;
9467;SDS011;4772;52.382;9.752;2023-03-01T05:32:46;13.13;;;9.13;;
9467;SDS011;4772;52.382;9.752;2023-03-01T05:35:13;12.60;;;9.60;;
9467;SDS011;4772;52.382;9.752;2023-03-01T05:37:41;15.73;;;9.47;;
9467;SDS011;4772;52.382;9.752;2023-03-01T05:40:07;12.97;;;9.13;;
9467;SDS011;4772;52.382;9.752;2023-03-01T05:42:40;12.80;;;9.47;;
9467;SDS011;4772;52.382;9.752;2023-03-01T05:45:06;18.17;;;9.93;;
9467;SDS011;4772;52.382;9.752;2023-03-01T05:47:34;11.60;;;8.83;;
9467;SDS011;4772;52.382;9.752;2023-03-01T05:50:00;11.23;;;9.10;;
9467;SDS011;4772;52.382;9.752;2023-03-01T05:52:26;15.27;;;9.50;;
9467;SDS011;4772;52.382;9.752;2023-03-01T05:54:55;12.87;;;9.13;;
9467;SDS011;4772;52.382;9.752;2023-03-01T05:57:21;13.77;;;9.20;;
9467;SDS011;4772;52.382;9.752;2023-03-01T05:59:47;12.70;;;8.73;;
9467;SDS011;4772;52.382;9.752;2023-03-01T06:02:13;13.43;;;9.43;;
9467;SDS011;4772;52.382;9.752;2023-03-01T06:04:39;13.33;;;9.50;;
9467;SDS011;4772;52.382;9.752;2023-03-01T06:07:05;13.93;;;9.10;;
9467;SDS011;4772;52.382;9.752;2023-03-01T06:09:31;13.13;;;8.63;;
9467;SDS011;4772;52.382;9.752;2023-03-01T06:11:57;12.63;;;9.23;;
9467;SDS011;4772;52.382;9.752;2023-03-01T06:14:23;14.93;;;9.40;;
9467;SDS011;4772;52.382;9.752;2023-03-01T06:16:49;14.87;;;9.30;;
9467;SDS011;4772;52.382;9.752;2023-03-01T06:19:15;12.07;;;9.73;;
9467;SDS011;4772;52.382;9.752;2023-03-01T06:21:41;18.63;;;9.43;;
9467;SDS011;4772;52.382;9.752;2023-03-01T06:24:07;15.23;;;9.57;;
9467;SDS011;4772;52.382;9.752;2023-03-01T06:26:34;12.23;;;9.37;;
9467;SDS011;4772;52.382;9.752;2023-03-01T06:29:00;12.43;;;8.57;;
9467;SDS011;4772;52.382;9.752;2023-03-01T06:31:26;14.33;;;9.07;;
9467;SDS011;4772;52.382;9.752;2023-03-01T06:33:52;13.37;;;9.40;;
9467;SDS011;4772;52.382;9.752;2023-03-01T06:36:17;14.13;;;9.80;;
9467;SDS011;4772;52.382;9.752;2023-03-01T06:38:46;20.17;;;9.13;;
9467;SDS011;4772;52.382;9.752;2023-03-01T06:41:12;16.13;;;8.73;;
9467;SDS011;4772;52.382;9.752;2023-03-01T06:43:38;12.83;;;8.60;;
9467;SDS011;4772;52.382;9.752;2023-03-01T06:46:05;17.10;;;9.67;;
9467;SDS011;4772;52.382;9.752;2023-03-01T06:48:32;11.67;;;9.13;;
9467;SDS011;4772;52.382;9.752;2023-03-01T06:50:58;14.60;;;9.20;;
9467;SDS011;4772;52.382;9.752;2023-03-01T06:53:25;17.87;;;9.70;;
9467;SDS011;4772;52.382;9.752;2023-03-01T06:55:55;17.50;;;9.73;;
9467;SDS011;4772;52.382;9.752;2023-03-01T06:58:21;17.07;;;9.53;;
9467;SDS011;4772;52.382;9.752;2023-03-01T07:00:47;15.37;;;9.10;;
9467;SDS011;4772;52.382;9.752;2023-03-01T07:03:13;12.53;;;8.53;;
9467;SDS011;4772;52.382;9.752;2023-03-01T07:05:39;11.70;;;9.20;;
9467;SDS011;4772;52.382;9.752;2023-03-01T07:08:05;11.47;;;8.13;;
9467;SDS011;4772;52.382;9.752;2023-03-01T07:10:31;13.90;;;8.13;;
9467;SDS011;4772;52.382;9.752;2023-03-01T07:12:57;14.80;;;8.40;;
9467;SDS011;4772;52.382;9.752;2023-03-01T07:15:23;13.23;;;7.50;;
9467;SDS011;4772;52.382;9.752;2023-03-01T07:17:50;12.03;;;7.27;;
9467;SDS011;4772;52.382;9.752;2023-03-01T07:20:16;15.53;;;7.40;;
9467;SDS011;4772;52.382;9.752;2023-03-01T07:22:42;10.03;;;7.33;;
9467;SDS011;4772;52.382;9.752;2023-03-01T07:25:09;13.03;;;7.73;;
9467;SDS011;4772;52.382;9.752;2023-03-01T07:27:35;9.83;;;7.23;;
9467;SDS011;4772;52.382;9.752;2023-03-01T07:30:02;9.67;;;6.67;;
9467;SDS011;4772;52.382;9.752;2023-03-01T07:32:28;13.03;;;8.00;;
9467;SDS011;4772;52.382;9.752;2023-03-01T07:34:54;12.17;;;7.70;;
9467;SDS011;4772;52.382;9.752;2023-03-01T07:37:20;11.97;;;8.63;;
9467;SDS011;4772;52.382;9.752;2023-03-01T07:39:46;16.53;;;8.10;;
9467;SDS011;4772;52.382;9.752;2023-03-01T07:42:12;11.77;;;7.70;;
9467;SDS011;4772;52.382;9.752;2023-03-01T07:44:38;13.57;;;8.07;;
9467;SDS011;4772;52.382;9.752;2023-03-01T07:47:04;15.57;;;8.67;;
9467;SDS011;4772;52.382;9.752;2023-03-01T07:49:30;13.50;;;8.67;;
9467;SDS011;4772;52.382;9.752;2023-03-01T07:51:56;18.20;;;9.43;;
9467;SDS011;4772;52.382;9.752;2023-03-01T07:54:22;15.17;;;8.67;;
9467;SDS011;4772;52.382;9.752;2023-03-01T07:56:48;17.27;;;9.73;;
9467;SDS011;4772;52.382;9.752;2023-03-01T07:59:14;16.47;;;8.47;;
9467;SDS011;4772;52.382;9.752;2023-03-01T08:01:40;24.03;;;9.97;;
9467;SDS011;4772;52.382;9.752;2023-03-01T08:04:07;31.57;;;9.27;;
9467;SDS011;4772;52.382;9.752;2023-03-01T08:06:33;23.97;;;8.13;;
9467;SDS011;4772;52.382;9.752;2023-03-01T08:08:59;23.93;;;9.27;;
9467;SDS011;4772;52.382;9.752;2023-03-01T08:11:25;27.73;;;8.17;;
9467;SDS011;4772;52.382;9.752;2023-03-01T08:13:53;75.77;;;14.10;;
9467;SDS011;4772;52.382;9.752;2023-03-01T08:16:19;22.93;;;8.47;;
9467;SDS011;4772;52.382;9.752;2023-03-01T08:18:45;16.63;;;7.77;;
9467;SDS011;4772;52.382;9.752;2023-03-01T08:21:14;13.33;;;7.50;;
9467;SDS011;4772;52.382;9.752;2023-03-01T08:23:40;15.27;;;7.80;;
9467;SDS011;4772;52.382;9.752;2023-03-01T08:26:17;14.40;;;7.73;;
9467;SDS011;4772;52.382;9.752;2023-03-01T08:28:43;12.77;;;7.57;;
9467;SDS011;4772;52.382;9.752;2023-03-01T08:31:13;18.33;;;7.60;;
9467;SDS011;4772;52.382;9.752;2023-03-01T08:33:40;11.03;;;7.67;;
9467;SDS011;4772;52.382;9.752;2023-03-01T08:36:06;13.87;;;7.03;;
9467;SDS011;4772;52.382;9.752;2023-03-01T08:38:32;32.50;;;9.53;;
9467;SDS011;4772;52.382;9.752;2023-03-01T08:40:59;15.93;;;8.20;;
9467;SDS011;4772;52.382;9.752;2023-03-01T08:43:25;13.87;;;7.30;;
9467;SDS011;4772;52.382;9.752;2023-03-01T08:45:51;12.13;;;7.73;;
9467;SDS011;4772;52.382;9.752;2023-03-01T08:48:17;12.23;;;7.17;;
9467;SDS011;4772;52.382;9.752;2023-03-01T08:50:43;14.97;;;7.67;;
9467;SDS011;4772;52.382;9.752;2023-03-01T08:53:09;12.33;;;7.63;;
9467;SDS011;4772;52.382;9.752;2023-03-01T08:55:36;9.17;;;6.23;;
9467;SDS011;4772;52.382;9.752;2023-03-01T08:58:02;9.83;;;6.80;;
9467;SDS011;4772;52.382;9.752;2023-03-01T09:00:28;10.73;;;6.40;;
9467;SDS011;4772;52.382;9.752;2023-03-01T09:02:54;11.07;;;5.90;;
9467;SDS011;4772;52.382;9.752;2023-03-01T09:05:20;12.03;;;6.23;;
9467;SDS011;4772;52.382;9.752;2023-03-01T09:07:46;9.17;;;6.23;;
9467;SDS011;4772;52.382;9.752;2023-03-01T09:10:11;12.30;;;6.13;;
9467;SDS011;4772;52.382;9.752;2023-03-01T09:12:37;9.60;;;5.40;;
9467;SDS011;4772;52.382;9.752;2023-03-01T09:15:04;7.93;;;5.33;;
9467;SDS011;4772;52.382;9.752;2023-03-01T09:17:30;9.57;;;5.30;;
9467;SDS011;4772;52.382;9.752;2023-03-01T09:19:56;5.90;;;4.93;;
9467;SDS011;4772;52.382;9.752;2023-03-01T09:22:21;8.63;;;5.40;;
9467;SDS011;4772;52.382;9.752;2023-03-01T09:24:47;6.63;;;4.83;;
9467;SDS011;4772;52.382;9.752;2023-03-01T09:27:13;6.00;;;4.73;;
9467;SDS011;4772;52.382;9.752;2023-03-01T09:29:43;5.93;;;4.80;;
9467;SDS011;4772;52.382;9.752;2023-03-01T09:32:09;7.67;;;5.07;;
9467;SDS011;4772;52.382;9.752;2023-03-01T09:34:35;7.10;;;5.17;;
9467;SDS011;4772;52.382;9.752;2023-03-01T09:37:20;5.47;;;4.67;;
9467;SDS011;4772;52.382;9.752;2023-03-01T09:39:46;9.60;;;5.43;;
9467;SDS011;4772;52.382;9.752;2023-03-01T09:42:12;6.97;;;5.17;;
9467;SDS011;4772;52.382;9.752;2023-03-01T09:47:12;7.13;;;5.43;;
9467;SDS011;4772;52.382;9.752;2023-03-01T09:49:42;7.30;;;5.00;;
9467;SDS011;4772;52.382;9.752;2023-03-01T09:54:39;7.47;;;5.37;;
9467;SDS011;4772;52.382;9.752;2023-03-01T10:00:16;10.03;;;5.53;;
9467;SDS011;4772;52.382;9.752;2023-03-01T10:02:38;5.77;;;5.03;;
9467;SDS011;4772;52.382;9.752;2023-03-01T10:08:31;8.40;;;4.97;;
9467;SDS011;4772;52.382;9.752;2023-03-01T10:10:38;6.83;;;5.13;;
9467;SDS011;4772;52.382;9.752;2023-03-01T10:13:27;6.73;;;4.73;;
9467;SDS011;4772;52.382;9.752;2023-03-01T10:16:00;9.27;;;5.57;;
9467;SDS011;4772;52.382;9.752;2023-03-01T10:18:28;9.03;;;5.37;;
9467;SDS011;4772;52.382;9.752;2023-03-01T10:20:58;8.00;;;5.57;;
9467;SDS011;4772;52.382;9.752;2023-03-01T10:23:25;8.13;;;5.43;;
9467;SDS011;4772;52.382;9.752;2023-03-01T10:31:12;6.20;;;5.00;;
9467;SDS011;4772;52.382;9.752;2023-03-01T10:33:39;7.87;;;5.20;;
9467;SDS011;4772;52.382;9.752;2023-03-01T10:36:06;8.50;;;4.63;;
9467;SDS011;4772;52.382;9.752;2023-03-01T10:38:46;5.93;;;4.43;;
9467;SDS011;4772;52.382;9.752;2023-03-01T10:41:13;6.07;;;4.27;;
9467;SDS011;4772;52.382;9.752;2023-03-01T10:46:23;6.07;;;4.20;;
9467;SDS011;4772;52.382;9.752;2023-03-01T10:49:06;6.07;;;4.13;;
9467;SDS011;4772;52.382;9.752;2023-03-01T10:51:32;4.37;;;3.87;;
9467;SDS011;4772;52.382;9.752;2023-03-01T10:53:58;6.83;;;3.90;;
9467;SDS011;4772;52.382;9.752;2023-03-01T10:56:24;5.17;;;4.03;;
9467;SDS011;4772;52.382;9.752;2023-03-01T11:04:11;6.87;;;4.20;;
9467;SDS011;4772;52.382;9.752;2023-03-01T11:06:35;5.17;;;3.60;;
9467;SDS011;4772;52.382;9.752;2023-03-01T11:11:40;4.40;;;3.80;;
9467;SDS011;4772;52.382;9.752;2023-03-01T11:14:07;5.03;;;3.57;;
9467;SDS011;4772;52.382;9.752;2023-03-01T11:16:34;3.77;;;3.13;;
9467;SDS011;4772;52.382;9.752;2023-03-01T11:19:14;5.10;;;3.43;;
9467;SDS011;4772;52.382;9.752;2023-03-01T11:24:14;5.43;;;3.50;;
9467;SDS011;4772;52.382;9.752;2023-03-01T11:26:42;5.33;;;4.30;;
9467;SDS011;4772;52.382;9.752;2023-03-01T11:29:16;6.17;;;3.70;;
9467;SDS011;4772;52.382;9.752;2023-03-01T11:31:43;6.03;;;4.17;;
9467;SDS011;4772;52.382;9.752;2023-03-01T11:34:12;5.60;;;3.97;;
9467;SDS011;4772;52.382;9.752;2023-03-01T11:41:48;6.70;;;4.70;;
9467;SDS011;4772;52.382;9.752;2023-03-01T11:44:18;5.83;;;4.27;;
9467;SDS011;4772;52.382;9.752;2023-03-01T11:55:21;6.60;;;5.20;;
9467;SDS011;4772;52.382;9.752;2023-03-01T12:00:10;5.33;;;4.10;;
9467;SDS011;4772;52.382;9.752;2023-03-01T12:07:56;7.60;;;4.53;;
9467;SDS011;4772;52.382;9.752;2023-03-01T12:13:06;5.88;;;3.97;;
9467;SDS011;4772;52.382;9.752;2023-03-01T12:15:41;5.07;;;3.47;;
9467;SDS011;4772;52.382;9.752;2023-03-01T12:28:45;6.40;;;3.93;;
9467;SDS011;4772;52.382;9.752;2023-03-01T12:46:47;5.73;;;3.50;;
9467;SDS011;4772;52.382;9.752;2023-03-01T12:49:31;5.30;;;3.70;;
9467;SDS011;4772;52.382;9.752;2023-03-01T12:51:59;4.27;;;3.83;;
9467;SDS011;4772;52.382;9.752;2023-03-01T12:54:28;4.77;;;3.93;;
9467;SDS011;4772;52.382;9.752;2023-03-01T12:56:56;5.00;;;3.50;;
9467;SDS011;4772;52.382;9.752;2023-03-01T13:02:15;4.90;;;3.60;;
9467;SDS011;4772;52.382;9.752;2023-03-01T13:04:57;4.73;;;3.43;;
9467;SDS011;4772;52.382;9.752;2023-03-01T13:07:39;3.70;;;3.40;;
9467;SDS011;4772;52.382;9.752;2023-03-01T13:20:47;4.33;;;3.90;;
9467;SDS011;4772;52.382;9.752;2023-03-01T13:23:23;7.17;;;4.20;;
9467;SDS011;4772;52.382;9.752;2023-03-01T13:28:52;4.63;;;4.20;;
9467;SDS011;4772;52.382;9.752;2023-03-01T13:33:52;5.30;;;3.77;;
9467;SDS011;4772;52.382;9.752;2023-03-01T13:37:03;4.70;;;4.30;;
9467;SDS011;4772;52.382;9.752;2023-03-01T13:39:12;5.77;;;4.40;;
9467;SDS011;4772;52.382;9.752;2023-03-01T13:41:56;8.83;;;4.60;;
9467;SDS011;4772;52.382;9.752;2023-03-01T13:46:49;6.47;;;3.80;;
9467;SDS011;4772;52.382;9.752;2023-03-01T13:49:16;8.17;;;4.17;;
9467;SDS011;4772;52.382;9.752;2023-03-01T13:51:45;4.37;;;3.97;;
9467;SDS011;4772;52.382;9.752;2023-03-01T13:54:12;4.30;;;3.57;;
9467;SDS011;4772;52.382;9.752;2023-03-01T13:56:39;4.53;;;3.73;;
9467;SDS011;4772;52.382;9.752;2023-03-01T13:59:12;4.60;;;3.93;;
9467;SDS011;4772;52.382;9.752;2023-03-01T14:01:38;6.57;;;4.00;;
9467;SDS011;4772;52.382;9.752;2023-03-01T14:04:18;4.97;;;3.60;;
9467;SDS011;4772;52.382;9.752;2023-03-01T14:06:44;3.70;;;3.40;;
9467;SDS011;4772;52.382;9.752;2023-03-01T14:09:44;4.50;;;3.57;;
9467;SDS011;4772;52.382;9.752;2023-03-01T14:19:30;4.93;;;3.03;;
9467;SDS011;4772;52.382;9.752;2023-03-01T14:24:29;3.27;;;2.97;;
9467;SDS011;4772;52.382;9.752;2023-03-01T14:26:57;6.53;;;3.60;;
9467;SDS011;4772;52.382;9.752;2023-03-01T14:29:27;5.23;;;3.50;;
9467;SDS011;4772;52.382;9.752;2023-03-01T14:31:54;6.03;;;3.50;;
9467;SDS011;4772;52.382;9.752;2023-03-01T14:34:21;3.90;;;3.10;;
9467;SDS011;4772;52.382;9.752;2023-03-01T14:36:47;3.80;;;3.10;;
9467;SDS011;4772;52.382;9.752;2023-03-01T14:39:22;4.30;;;3.23;;
9467;SDS011;4772;52.382;9.752;2023-03-01T14:41:50;3.30;;;3.00;;
9467;SDS011;4772;52.382;9.752;2023-03-01T14:44:19;3.77;;;3.10;;
9467;SDS011;4772;52.382;9.752;2023-03-01T14:46:50;4.40;;;3.38;;
9467;SDS011;4772;52.382;9.752;2023-03-01T14:49:24;4.10;;;3.40;;
9467;SDS011;4772;52.382;9.752;2023-03-01T14:51:52;4.20;;;3.20;;
9467;SDS011;4772;52.382;9.752;2023-03-01T14:56:52;3.83;;;2.93;;
9467;SDS011;4772;52.382;9.752;2023-03-01T14:59:22;4.20;;;3.10;;
9467;SDS011;4772;52.382;9.752;2023-03-01T15:01:49;3.27;;;2.80;;
9467;SDS011;4772;52.382;9.752;2023-03-01T15:04:15;3.43;;;2.90;;
9467;SDS011;4772;52.382;9.752;2023-03-01T15:06:42;4.50;;;3.10;;
9467;SDS011;4772;52.382;9.752;2023-03-01T15:09:12;5.13;;;2.80;;
9467;SDS011;4772;52.382;9.752;2023-03-01T15:11:40;4.47;;;3.37;;
9467;SDS011;4772;52.382;9.752;2023-03-01T15:16:53;4.53;;;3.50;;
9467;SDS011;4772;52.382;9.752;2023-03-01T15:19:19;5.70;;;3.53;;
9467;SDS011;4772;52.382;9.752;2023-03-01T15:21:46;4.97;;;2.90;;
9467;SDS011;4772;52.382;9.752;2023-03-01T15:26:49;4.63;;;3.10;;
9467;SDS011;4772;52.382;9.752;2023-03-01T15:29:18;3.83;;;3.20;;
9467;SDS011;4772;52.382;9.752;2023-03-01T15:32:46;4.03;;;3.03;;
9467;SDS011;4772;52.382;9.752;2023-03-01T15:34:40;4.13;;;3.00;;
9467;SDS011;4772;52.382;9.752;2023-03-01T15:37:34;4.53;;;3.20;;
9467;SDS011;4772;52.382;9.752;2023-03-01T15:39:53;4.90;;;3.30;;
9467;SDS011;4772;52.382;9.752;2023-03-01T15:45:06;4.00;;;3.20;;
9467;SDS011;4772;52.382;9.752;2023-03-01T15:47:32;5.77;;;3.20;;
9467;SDS011;4772;52.382;9.752;2023-03-01T15:49:59;4.77;;;3.13;;
9467;SDS011;4772;52.382;9.752;2023-03-01T15:52:28;6.07;;;3.53;;
9467;SDS011;4772;52.382;9.752;2023-03-01T15:54:56;5.33;;;3.23;;
9467;SDS011;4772;52.382;9.752;2023-03-01T15:57:22;4.17;;;2.87;;
9467;SDS011;4772;52.382;9.752;2023-03-01T15:59:48;4.27;;;2.83;;
9467;SDS011;4772;52.382;9.752;2023-03-01T16:02:14;4.53;;;2.80;;
9467;SDS011;4772;52.382;9.752;2023-03-01T16:04:40;4.20;;;3.00;;
9467;SDS011;4772;52.382;9.752;2023-03-01T16:07:08;6.87;;;3.43;;
9467;SDS011;4772;52.382;9.752;2023-03-01T16:09:34;6.37;;;3.20;;
9467;SDS011;4772;52.382;9.752;2023-03-01T16:12:01;5.10;;;2.60;;
9467;SDS011;4772;52.382;9.752;2023-03-01T16:14:27;4.27;;;2.63;;
9467;SDS011;4772;52.382;9.752;2023-03-01T16:16:53;3.93;;;2.90;;
9467;SDS011;4772;52.382;9.752;2023-03-01T16:19:19;3.80;;;2.80;;
9467;SDS011;4772;52.382;9.752;2023-03-01T16:21:45;4.97;;;3.17;;
9467;SDS011;4772;52.382;9.752;2023-03-01T16:24:13;5.47;;;3.07;;
9467;SDS011;4772;52.382;9.752;2023-03-01T16:26:39;6.73;;;3.63;;
9467;SDS011;4772;52.382;9.752;2023-03-01T16:29:07;8.60;;;4.97;;
9467;SDS011;4772;52.382;9.752;2023-03-01T16:31:33;8.97;;;4.73;;
9467;SDS011;4772;52.382;9.752;2023-03-01T16:33:59;5.80;;;4.33;;
9467;SDS011;4772;52.382;9.752;2023-03-01T16:36:25;6.03;;;3.73;;
9467;SDS011;4772;52.382;9.752;2023-03-01T16:38:53;5.07;;;3.87;;
9467;SDS011;4772;52.382;9.752;2023-03-01T16:41:20;7.40;;;4.37;;
9467;SDS011;4772;52.382;9.752;2023-03-01T16:43:47;4.87;;;3.70;;
9467;SDS011;4772;52.382;9.752;2023-03-01T16:46:14;4.70;;;3.30;;
9467;SDS011;4772;52.382;9.752;2023-03-01T16:48:40;3.57;;;2.90;;
9467;SDS011;4772;52.382;9.752;2023-03-01T16:51:06;9.13;;;2.80;;
9467;SDS011;4772;52.382;9.752;2023-03-01T16:53:33;5.37;;;4.00;;
9467;SDS011;4772;52.382;9.752;2023-03-01T16:56:01;3.70;;;2.90;;
9467;SDS011;4772;52.382;9.752;2023-03-01T16:58:27;3.93;;;3.03;;
9467;SDS011;4772;52.382;9.752;2023-03-01T17:00:53;4.53;;;2.73;;
9467;SDS011;4772;52.382;9.752;2023-03-01T17:03:20;6.80;;;3.17;;
9467;SDS011;4772;52.382;9.752;2023-03-01T17:05:46;5.60;;;3.17;;
9467;SDS011;4772;52.382;9.752;2023-03-01T17:08:13;7.07;;;3.33;;
9467;SDS011;4772;52.382;9.752;2023-03-01T17:10:39;7.37;;;3.40;;
9467;SDS011;4772;52.382;9.752;2023-03-01T17:13:06;8.13;;;3.40;;
9467;SDS011;4772;52.382;9.752;2023-03-01T17:15:33;6.23;;;3.40;;
9467;SDS011;4772;52.382;9.752;2023-03-01T17:17:59;5.37;;;3.80;;
9467;SDS011;4772;52.382;9.752;2023-03-01T17:20:26;4.00;;;3.17;;